sensor_id;sensor_type;location;lat;lon;timestamp;temperature;humidity
54158;DHT22;40065;49.894;10.358;2023-06-26T00:01:09;22.40;90.60
54158;DHT22;40065;49.894;10.358;2023-06-26T00:06:11;22.40;90.90
54158;DHT22;40065;49.894;10.358;2023-06-26T00:11:15;22.50;90.70
54158;DHT22;40065;49.894;10.358;2023-06-26T00:16:17;22.50;90.80
54158;DHT22;40065;49.894;10.358;2023-06-26T00:21:19;22.30;91.20
54158;DHT22;40065;49.894;10.358;2023-06-26T00:26:21;22.00;91.70
54158;DHT22;40065;49.894;10.358;2023-06-26T00:31:23;21.90;92.40
54158;DHT22;40065;49.894;10.358;2023-06-26T00:36:25;21.80;92.60
54158;DHT22;40065;49.894;10.358;2023-06-26T00:41:28;21.70;93.10
54158;DHT22;40065;49.894;10.358;2023-06-26T00:46:30;21.60;93.50
54158;DHT22;40065;49.894;10.358;2023-06-26T00:51:32;21.60;93.60
54158;DHT22;40065;49.894;10.358;2023-06-26T00:56:35;21.40;94.20
54158;DHT22;40065;49.894;10.358;2023-06-26T01:01:39;21.40;94.40
54158;DHT22;40065;49.894;10.358;2023-06-26T01:06:46;21.30;94.50
54158;DHT22;40065;49.894;10.358;2023-06-26T01:11:53;21.10;95.20
54158;DHT22;40065;49.894;10.358;2023-06-26T01:16:56;21.20;95.10
54158;DHT22;40065;49.894;10.358;2023-06-26T01:22:23;21.30;95.20
54158;DHT22;40065;49.894;10.358;2023-06-26T01:27:30;21.30;95.50
54158;DHT22;40065;49.894;10.358;2023-06-26T01:32:34;21.20;95.00
54158;DHT22;40065;49.894;10.358;2023-06-26T01:37:36;21.40;94.30
54158;DHT22;40065;49.894;10.358;2023-06-26T01:42:38;21.30;94.50
54158;DHT22;40065;49.894;10.358;2023-06-26T01:47:43;21.10;95.30
54158;DHT22;40065;49.894;10.358;2023-06-26T01:58:01;21.20;95.30
54158;DHT22;40065;49.894;10.358;2023-06-26T02:03:04;21.10;94.90
54158;DHT22;40065;49.894;10.358;2023-06-26T02:08:13;21.10;95.10
54158;DHT22;40065;49.894;10.358;2023-06-26T02:13:22;21.10;94.70
54158;DHT22;40065;49.894;10.358;2023-06-26T02:18:24;20.80;95.30
54158;DHT22;40065;49.894;10.358;2023-06-26T02:23:26;20.60;96.00
54158;DHT22;40065;49.894;10.358;2023-06-26T02:28:28;20.60;95.90
54158;DHT22;40065;49.894;10.358;2023-06-26T02:33:32;20.50;96.20
54158;DHT22;40065;49.894;10.358;2023-06-26T02:38:34;20.50;96.10
54158;DHT22;40065;49.894;10.358;2023-06-26T02:43:36;20.40;96.40
54158;DHT22;40065;49.894;10.358;2023-06-26T02:48:38;20.60;95.70
54158;DHT22;40065;49.894;10.358;2023-06-26T02:53:40;20.50;95.40
54158;DHT22;40065;49.894;10.358;2023-06-26T02:58:43;20.50;95.70
54158;DHT22;40065;49.894;10.358;2023-06-26T03:03:45;20.50;95.50
54158;DHT22;40065;49.894;10.358;2023-06-26T03:08:51;20.30;96.00
54158;DHT22;40065;49.894;10.358;2023-06-26T03:13:54;20.30;96.50
54158;DHT22;40065;49.894;10.358;2023-06-26T03:18:56;20.30;96.50
54158;DHT22;40065;49.894;10.358;2023-06-26T03:23:58;20.30;97.20
54158;DHT22;40065;49.894;10.358;2023-06-26T03:29:00;20.30;97.00
54158;DHT22;40065;49.894;10.358;2023-06-26T03:34:01;20.30;97.00
54158;DHT22;40065;49.894;10.358;2023-06-26T03:39:03;20.30;97.50
54158;DHT22;40065;49.894;10.358;2023-06-26T03:44:06;20.20;97.60
54158;DHT22;40065;49.894;10.358;2023-06-26T03:49:16;20.40;97.20
54158;DHT22;40065;49.894;10.358;2023-06-26T03:54:18;21.10;95.80
54158;DHT22;40065;49.894;10.358;2023-06-26T03:59:20;21.80;94.60
54158;DHT22;40065;49.894;10.358;2023-06-26T04:04:22;22.50;92.80
54158;DHT22;40065;49.894;10.358;2023-06-26T04:09:25;23.20;91.70
54158;DHT22;40065;49.894;10.358;2023-06-26T04:14:26;24.00;90.90
54158;DHT22;40065;49.894;10.358;2023-06-26T04:19:29;25.20;87.40
54158;DHT22;40065;49.894;10.358;2023-06-26T04:24:31;25.10;85.50
54158;DHT22;40065;49.894;10.358;2023-06-26T04:29:33;25.70;84.50
54158;DHT22;40065;49.894;10.358;2023-06-26T04:34:35;26.50;81.80
54158;DHT22;40065;49.894;10.358;2023-06-26T04:39:37;27.30;80.20
54158;DHT22;40065;49.894;10.358;2023-06-26T04:44:39;28.50;77.50
54158;DHT22;40065;49.894;10.358;2023-06-26T04:49:43;29.20;74.10
54158;DHT22;40065;49.894;10.358;2023-06-26T04:54:48;29.30;72.50
54158;DHT22;40065;49.894;10.358;2023-06-26T04:59:50;29.00;71.70
54158;DHT22;40065;49.894;10.358;2023-06-26T05:04:51;29.70;72.60
54158;DHT22;40065;49.894;10.358;2023-06-26T05:09:53;30.60;70.70
54158;DHT22;40065;49.894;10.358;2023-06-26T05:14:55;31.20;68.60
54158;DHT22;40065;49.894;10.358;2023-06-26T05:19:57;31.30;67.30
54158;DHT22;40065;49.894;10.358;2023-06-26T05:24:59;31.00;68.20
54158;DHT22;40065;49.894;10.358;2023-06-26T05:30:03;32.40;67.00
54158;DHT22;40065;49.894;10.358;2023-06-26T05:35:06;33.60;64.70
54158;DHT22;40065;49.894;10.358;2023-06-26T05:40:09;33.30;62.60
54158;DHT22;40065;49.894;10.358;2023-06-26T05:45:11;33.50;63.80
54158;DHT22;40065;49.894;10.358;2023-06-26T05:50:14;33.20;60.60
54158;DHT22;40065;49.894;10.358;2023-06-26T05:55:16;31.90;63.50
54158;DHT22;40065;49.894;10.358;2023-06-26T06:00:18;32.80;63.60
54158;DHT22;40065;49.894;10.358;2023-06-26T06:05:21;33.10;61.60
54158;DHT22;40065;49.894;10.358;2023-06-26T06:10:23;33.40;62.30
54158;DHT22;40065;49.894;10.358;2023-06-26T06:15:25;33.60;60.50
54158;DHT22;40065;49.894;10.358;2023-06-26T06:20:30;33.30;60.90
54158;DHT22;40065;49.894;10.358;2023-06-26T06:25:32;33.70;60.10
54158;DHT22;40065;49.894;10.358;2023-06-26T06:30:34;34.20;59.70
54158;DHT22;40065;49.894;10.358;2023-06-26T06:35:46;34.80;59.00
54158;DHT22;40065;49.894;10.358;2023-06-26T06:40:48;34.00;58.00
54158;DHT22;40065;49.894;10.358;2023-06-26T06:45:50;34.20;58.70
54158;DHT22;40065;49.894;10.358;2023-06-26T06:50:52;35.00;58.20
54158;DHT22;40065;49.894;10.358;2023-06-26T06:55:53;35.20;54.60
54158;DHT22;40065;49.894;10.358;2023-06-26T07:00:55;34.70;55.20
54158;DHT22;40065;49.894;10.358;2023-06-26T07:05:57;35.00;56.20
54158;DHT22;40065;49.894;10.358;2023-06-26T07:10:59;34.90;55.10
54158;DHT22;40065;49.894;10.358;2023-06-26T07:16:01;34.80;55.50
54158;DHT22;40065;49.894;10.358;2023-06-26T07:21:03;34.60;55.10
54158;DHT22;40065;49.894;10.358;2023-06-26T07:26:05;34.10;56.40
54158;DHT22;40065;49.894;10.358;2023-06-26T07:31:07;34.40;56.40
54158;DHT22;40065;49.894;10.358;2023-06-26T07:36:10;34.00;56.40
54158;DHT22;40065;49.894;10.358;2023-06-26T07:41:12;34.50;55.20
54158;DHT22;40065;49.894;10.358;2023-06-26T07:46:13;34.70;55.40
54158;DHT22;40065;49.894;10.358;2023-06-26T07:51:15;35.20;54.00
54158;DHT22;40065;49.894;10.358;2023-06-26T07:56:18;35.30;52.70
54158;DHT22;40065;49.894;10.358;2023-06-26T08:01:20;35.40;54.00
54158;DHT22;40065;49.894;10.358;2023-06-26T08:06:22;36.30;52.00
54158;DHT22;40065;49.894;10.358;2023-06-26T08:11:24;36.00;52.60
54158;DHT22;40065;49.894;10.358;2023-06-26T08:16:26;36.00;52.40
54158;DHT22;40065;49.894;10.358;2023-06-26T08:21:27;36.20;52.50
54158;DHT22;40065;49.894;10.358;2023-06-26T08:26:29;36.40;51.30
54158;DHT22;40065;49.894;10.358;2023-06-26T08:31:31;36.90;51.60
54158;DHT22;40065;49.894;10.358;2023-06-26T08:36:36;37.50;49.30
54158;DHT22;40065;49.894;10.358;2023-06-26T08:41:38;37.00;49.80
54158;DHT22;40065;49.894;10.358;2023-06-26T08:46:40;36.50;51.40
54158;DHT22;40065;49.894;10.358;2023-06-26T08:51:49;37.00;50.80
54158;DHT22;40065;49.894;10.358;2023-06-26T08:56:52;37.30;49.50
54158;DHT22;40065;49.894;10.358;2023-06-26T09:01:54;37.40;50.20
54158;DHT22;40065;49.894;10.358;2023-06-26T09:06:56;37.40;50.10
54158;DHT22;40065;49.894;10.358;2023-06-26T09:11:58;38.00;49.50
54158;DHT22;40065;49.894;10.358;2023-06-26T09:17:00;38.20;49.40
54158;DHT22;40065;49.894;10.358;2023-06-26T09:22:02;38.60;48.50
54158;DHT22;40065;49.894;10.358;2023-06-26T09:27:05;38.00;48.40
54158;DHT22;40065;49.894;10.358;2023-06-26T09:32:10;38.10;48.10
54158;DHT22;40065;49.894;10.358;2023-06-26T09:37:13;38.60;47.60
54158;DHT22;40065;49.894;10.358;2023-06-26T09:42:15;39.40;47.30
54158;DHT22;40065;49.894;10.358;2023-06-26T09:47:21;39.10;48.00
54158;DHT22;40065;49.894;10.358;2023-06-26T09:52:27;38.90;48.40
54158;DHT22;40065;49.894;10.358;2023-06-26T09:57:30;39.60;46.70
54158;DHT22;40065;49.894;10.358;2023-06-26T10:02:31;39.30;45.90
54158;DHT22;40065;49.894;10.358;2023-06-26T10:07:35;39.10;47.80
54158;DHT22;40065;49.894;10.358;2023-06-26T10:12:38;39.90;46.30
54158;DHT22;40065;49.894;10.358;2023-06-26T10:17:42;39.90;45.70
54158;DHT22;40065;49.894;10.358;2023-06-26T10:22:46;40.10;45.90
54158;DHT22;40065;49.894;10.358;2023-06-26T10:27:53;40.20;45.30
54158;DHT22;40065;49.894;10.358;2023-06-26T10:32:56;40.40;44.40
54158;DHT22;40065;49.894;10.358;2023-06-26T10:38:02;40.30;44.20
54158;DHT22;40065;49.894;10.358;2023-06-26T10:43:09;40.40;44.20
54158;DHT22;40065;49.894;10.358;2023-06-26T10:48:14;40.70;44.10
54158;DHT22;40065;49.894;10.358;2023-06-26T11:03:46;41.20;42.70
54158;DHT22;40065;49.894;10.358;2023-06-26T11:08:54;40.90;42.50
54158;DHT22;40065;49.894;10.358;2023-06-26T11:13:56;40.20;41.90
54158;DHT22;40065;49.894;10.358;2023-06-26T11:18:58;40.40;42.70
54158;DHT22;40065;49.894;10.358;2023-06-26T11:24:01;40.10;41.50
54158;DHT22;40065;49.894;10.358;2023-06-26T11:29:04;40.10;42.70
54158;DHT22;40065;49.894;10.358;2023-06-26T11:34:08;39.40;42.90
54158;DHT22;40065;49.894;10.358;2023-06-26T11:39:12;38.90;42.90
54158;DHT22;40065;49.894;10.358;2023-06-26T11:44:14;38.60;43.80
54158;DHT22;40065;49.894;10.358;2023-06-26T11:49:21;39.40;44.20
54158;DHT22;40065;49.894;10.358;2023-06-26T11:54:26;39.00;44.10
54158;DHT22;40065;49.894;10.358;2023-06-26T11:59:36;38.90;45.20
54158;DHT22;40065;49.894;10.358;2023-06-26T12:04:42;39.30;44.70
54158;DHT22;40065;49.894;10.358;2023-06-26T12:09:46;37.90;46.00
54158;DHT22;40065;49.894;10.358;2023-06-26T12:14:49;38.80;45.90
54158;DHT22;40065;49.894;10.358;2023-06-26T12:19:52;39.90;45.00
54158;DHT22;40065;49.894;10.358;2023-06-26T12:24:56;40.00;45.10
54158;DHT22;40065;49.894;10.358;2023-06-26T12:29:59;40.40;45.10
54158;DHT22;40065;49.894;10.358;2023-06-26T12:35:00;40.60;44.30
54158;DHT22;40065;49.894;10.358;2023-06-26T12:40:02;39.90;45.50
54158;DHT22;40065;49.894;10.358;2023-06-26T12:45:14;40.20;46.20
54158;DHT22;40065;49.894;10.358;2023-06-26T12:50:38;40.40;45.10
54158;DHT22;40065;49.894;10.358;2023-06-26T12:55:40;40.70;45.10
54158;DHT22;40065;49.894;10.358;2023-06-26T13:00:42;40.60;44.70
54158;DHT22;40065;49.894;10.358;2023-06-26T13:05:44;40.00;46.10
54158;DHT22;40065;49.894;10.358;2023-06-26T13:10:46;40.30;45.30
54158;DHT22;40065;49.894;10.358;2023-06-26T13:15:48;40.70;45.30
54158;DHT22;40065;49.894;10.358;2023-06-26T13:20:49;40.90;45.30
54158;DHT22;40065;49.894;10.358;2023-06-26T13:25:51;39.80;45.40
54158;DHT22;40065;49.894;10.358;2023-06-26T13:30:53;39.50;46.20
54158;DHT22;40065;49.894;10.358;2023-06-26T13:35:56;39.20;46.50
54158;DHT22;40065;49.894;10.358;2023-06-26T13:40:58;38.40;47.00
54158;DHT22;40065;49.894;10.358;2023-06-26T13:46:02;38.00;48.00
54158;DHT22;40065;49.894;10.358;2023-06-26T13:51:05;38.50;48.30
54158;DHT22;40065;49.894;10.358;2023-06-26T13:56:06;38.40;48.00
54158;DHT22;40065;49.894;10.358;2023-06-26T14:01:09;38.50;48.40
54158;DHT22;40065;49.894;10.358;2023-06-26T14:06:11;38.50;48.60
54158;DHT22;40065;49.894;10.358;2023-06-26T14:11:13;38.20;49.00
54158;DHT22;40065;49.894;10.358;2023-06-26T14:16:17;38.40;49.20
54158;DHT22;40065;49.894;10.358;2023-06-26T14:21:20;37.90;48.70
54158;DHT22;40065;49.894;10.358;2023-06-26T14:26:23;37.70;49.10
54158;DHT22;40065;49.894;10.358;2023-06-26T14:31:25;37.40;49.70
54158;DHT22;40065;49.894;10.358;2023-06-26T14:36:27;37.60;49.40
54158;DHT22;40065;49.894;10.358;2023-06-26T14:41:30;37.30;49.40
54158;DHT22;40065;49.894;10.358;2023-06-26T14:46:32;36.80;49.90
54158;DHT22;40065;49.894;10.358;2023-06-26T14:51:34;37.50;50.00
54158;DHT22;40065;49.894;10.358;2023-06-26T14:56:36;37.80;49.30
54158;DHT22;40065;49.894;10.358;2023-06-26T15:01:39;37.70;49.60
54158;DHT22;40065;49.894;10.358;2023-06-26T15:06:41;37.70;48.10
54158;DHT22;40065;49.894;10.358;2023-06-26T15:11:42;36.40;49.40
54158;DHT22;40065;49.894;10.358;2023-06-26T15:16:44;36.30;50.50
54158;DHT22;40065;49.894;10.358;2023-06-26T15:21:46;35.90;50.80
54158;DHT22;40065;49.894;10.358;2023-06-26T15:26:48;35.50;50.90
54158;DHT22;40065;49.894;10.358;2023-06-26T15:31:50;35.20;51.90
54158;DHT22;40065;49.894;10.358;2023-06-26T15:36:52;35.40;51.50
54158;DHT22;40065;49.894;10.358;2023-06-26T15:41:54;35.40;51.50
54158;DHT22;40065;49.894;10.358;2023-06-26T15:46:56;35.30;52.40
54158;DHT22;40065;49.894;10.358;2023-06-26T15:51:57;36.00;52.00
54158;DHT22;40065;49.894;10.358;2023-06-26T15:56:59;35.60;52.50
54158;DHT22;40065;49.894;10.358;2023-06-26T16:02:01;35.30;52.80
54158;DHT22;40065;49.894;10.358;2023-06-26T16:07:03;34.60;53.00
54158;DHT22;40065;49.894;10.358;2023-06-26T16:12:05;33.90;53.90
54158;DHT22;40065;49.894;10.358;2023-06-26T16:17:08;33.50;54.50
54158;DHT22;40065;49.894;10.358;2023-06-26T16:22:10;33.40;54.70
54158;DHT22;40065;49.894;10.358;2023-06-26T16:27:12;33.40;54.60
54158;DHT22;40065;49.894;10.358;2023-06-26T16:32:14;32.80;55.60
54158;DHT22;40065;49.894;10.358;2023-06-26T16:37:16;32.90;55.20
54158;DHT22;40065;49.894;10.358;2023-06-26T16:42:18;32.90;55.10
54158;DHT22;40065;49.894;10.358;2023-06-26T16:47:22;33.20;54.60
54158;DHT22;40065;49.894;10.358;2023-06-26T16:52:23;32.90;54.90
54158;DHT22;40065;49.894;10.358;2023-06-26T16:57:25;32.20;55.70
54158;DHT22;40065;49.894;10.358;2023-06-26T17:02:27;32.20;55.70
54158;DHT22;40065;49.894;10.358;2023-06-26T17:07:31;31.80;56.00
54158;DHT22;40065;49.894;10.358;2023-06-26T17:12:33;31.80;55.80
54158;DHT22;40065;49.894;10.358;2023-06-26T17:17:35;31.40;56.30
54158;DHT22;40065;49.894;10.358;2023-06-26T17:22:37;31.50;55.90
54158;DHT22;40065;49.894;10.358;2023-06-26T17:27:39;31.00;56.10
54158;DHT22;40065;49.894;10.358;2023-06-26T17:32:41;30.60;56.60
54158;DHT22;40065;49.894;10.358;2023-06-26T17:37:43;30.80;56.10
54158;DHT22;40065;49.894;10.358;2023-06-26T17:42:45;30.50;55.20
54158;DHT22;40065;49.894;10.358;2023-06-26T17:47:47;30.30;54.60
54158;DHT22;40065;49.894;10.358;2023-06-26T17:52:49;29.90;53.80
54158;DHT22;40065;49.894;10.358;2023-06-26T17:57:51;29.90;53.70
54158;DHT22;40065;49.894;10.358;2023-06-26T18:02:53;29.80;53.60
54158;DHT22;40065;49.894;10.358;2023-06-26T18:07:56;29.50;52.70
54158;DHT22;40065;49.894;10.358;2023-06-26T18:13:04;29.20;52.20
54158;DHT22;40065;49.894;10.358;2023-06-26T18:18:06;29.20;52.00
54158;DHT22;40065;49.894;10.358;2023-06-26T18:23:08;29.00;51.70
54158;DHT22;40065;49.894;10.358;2023-06-26T18:28:11;28.90;51.30
54158;DHT22;40065;49.894;10.358;2023-06-26T18:33:14;28.40;51.40
54158;DHT22;40065;49.894;10.358;2023-06-26T18:38:15;28.50;51.60
54158;DHT22;40065;49.894;10.358;2023-06-26T18:43:18;28.30;51.80
54158;DHT22;40065;49.894;10.358;2023-06-26T18:48:22;28.30;51.90
54158;DHT22;40065;49.894;10.358;2023-06-26T18:53:24;28.00;51.90
54158;DHT22;40065;49.894;10.358;2023-06-26T18:58:26;27.80;52.50
54158;DHT22;40065;49.894;10.358;2023-06-26T19:03:28;27.60;52.60
54158;DHT22;40065;49.894;10.358;2023-06-26T19:08:30;27.30;53.40
54158;DHT22;40065;49.894;10.358;2023-06-26T19:13:31;27.00;54.10
54158;DHT22;40065;49.894;10.358;2023-06-26T19:18:33;27.00;54.30
54158;DHT22;40065;49.894;10.358;2023-06-26T19:23:36;26.80;55.50
54158;DHT22;40065;49.894;10.358;2023-06-26T19:28:38;26.60;55.20
54158;DHT22;40065;49.894;10.358;2023-06-26T19:33:40;26.40;55.40
54158;DHT22;40065;49.894;10.358;2023-06-26T19:38:42;26.20;55.20
54158;DHT22;40065;49.894;10.358;2023-06-26T19:43:46;26.00;55.50
54158;DHT22;40065;49.894;10.358;2023-06-26T19:48:47;25.90;55.80
54158;DHT22;40065;49.894;10.358;2023-06-26T19:53:49;26.10;56.70
54158;DHT22;40065;49.894;10.358;2023-06-26T19:58:53;26.00;56.00
54158;DHT22;40065;49.894;10.358;2023-06-26T20:03:54;25.80;56.70
54158;DHT22;40065;49.894;10.358;2023-06-26T20:08:57;25.90;56.40
54158;DHT22;40065;49.894;10.358;2023-06-26T20:13:58;25.60;56.90
54158;DHT22;40065;49.894;10.358;2023-06-26T20:19:00;25.50;57.10
54158;DHT22;40065;49.894;10.358;2023-06-26T20:24:02;25.50;57.50
54158;DHT22;40065;49.894;10.358;2023-06-26T20:29:05;25.40;57.60
54158;DHT22;40065;49.894;10.358;2023-06-26T20:34:06;25.30;58.10
54158;DHT22;40065;49.894;10.358;2023-06-26T20:39:08;25.10;59.20
54158;DHT22;40065;49.894;10.358;2023-06-26T20:44:11;25.10;59.50
54158;DHT22;40065;49.894;10.358;2023-06-26T20:49:13;25.10;59.50
54158;DHT22;40065;49.894;10.358;2023-06-26T20:54:15;25.00;59.50
54158;DHT22;40065;49.894;10.358;2023-06-26T20:59:17;24.90;59.90
54158;DHT22;40065;49.894;10.358;2023-06-26T21:04:19;24.90;59.60
54158;DHT22;40065;49.894;10.358;2023-06-26T21:09:21;25.00;60.00
54158;DHT22;40065;49.894;10.358;2023-06-26T21:14:23;24.90;60.00
54158;DHT22;40065;49.894;10.358;2023-06-26T21:19:24;24.70;59.80
54158;DHT22;40065;49.894;10.358;2023-06-26T21:24:26;24.70;58.70
54158;DHT22;40065;49.894;10.358;2023-06-26T21:29:28;24.70;57.90
54158;DHT22;40065;49.894;10.358;2023-06-26T21:34:30;24.70;57.70
54158;DHT22;40065;49.894;10.358;2023-06-26T21:39:32;24.60;58.10
54158;DHT22;40065;49.894;10.358;2023-06-26T21:44:34;24.40;58.30
54158;DHT22;40065;49.894;10.358;2023-06-26T21:49:38;24.40;58.90
54158;DHT22;40065;49.894;10.358;2023-06-26T21:54:40;24.40;58.90
54158;DHT22;40065;49.894;10.358;2023-06-26T21:59:41;24.30;59.60
54158;DHT22;40065;49.894;10.358;2023-06-26T22:04:43;24.30;59.70
54158;DHT22;40065;49.894;10.358;2023-06-26T22:09:45;24.20;59.80
54158;DHT22;40065;49.894;10.358;2023-06-26T22:14:47;24.20;59.80
54158;DHT22;40065;49.894;10.358;2023-06-26T22:19:49;24.30;59.40
54158;DHT22;40065;49.894;10.358;2023-06-26T22:24:51;24.00;59.70
54158;DHT22;40065;49.894;10.358;2023-06-26T22:29:53;23.90;59.70
54158;DHT22;40065;49.894;10.358;2023-06-26T22:34:57;23.90;59.40
54158;DHT22;40065;49.894;10.358;2023-06-26T22:39:59;23.90;59.40
54158;DHT22;40065;49.894;10.358;2023-06-26T22:45:03;23.80;60.10
54158;DHT22;40065;49.894;10.358;2023-06-26T22:50:06;23.80;58.50
54158;DHT22;40065;49.894;10.358;2023-06-26T22:55:08;23.60;58.90
54158;DHT22;40065;49.894;10.358;2023-06-26T23:00:11;23.60;58.30
54158;DHT22;40065;49.894;10.358;2023-06-26T23:05:13;23.60;58.10
54158;DHT22;40065;49.894;10.358;2023-06-26T23:10:15;23.40;58.40
54158;DHT22;40065;49.894;10.358;2023-06-26T23:15:17;23.40;58.40
54158;DHT22;40065;49.894;10.358;2023-06-26T23:20:19;23.30;58.30
54158;DHT22;40065;49.894;10.358;2023-06-26T23:25:21;23.20;58.70
54158;DHT22;40065;49.894;10.358;2023-06-26T23:30:23;23.20;58.80
54158;DHT22;40065;49.894;10.358;2023-06-26T23:35:25;23.10;59.80
54158;DHT22;40065;49.894;10.358;2023-06-26T23:40:27;23.10;59.60
54158;DHT22;40065;49.894;10.358;2023-06-26T23:45:31;23.00;60.60
54158;DHT22;40065;49.894;10.358;2023-06-26T23:50:33;22.80;60.50
54158;DHT22;40065;49.894;10.358;2023-06-26T23:55:35;22.70;60.80
